sensor_id;sensor_type;location;lat;lon;timestamp;pressure;altitude;pressure_sealevel;temperature;humidity
40372;BME280;28564;53.346;-6.554;2023-03-19T00:02:05;100726.47;;;7.22;49.61
40372;BME280;28564;53.346;-6.554;2023-03-19T00:04:32;100729.39;;;6.97;49.55
40372;BME280;28564;53.346;-6.554;2023-03-19T00:06:59;100726.46;;;7.14;49.47
40372;BME280;28564;53.346;-6.554;2023-03-19T00:09:27;100727.39;;;7.08;49.35
40372;BME280;28564;53.346;-6.554;2023-03-19T00:11:54;100726.89;;;7.03;49.19
40372;BME280;28564;53.346;-6.554;2023-03-19T00:14:21;100730.79;;;7.21;49.05
40372;BME280;28564;53.346;-6.554;2023-03-19T00:16:49;100731.59;;;6.95;48.84
40372;BME280;28564;53.346;-6.554;2023-03-19T00:19:16;100730.28;;;6.91;48.80
40372;BME280;28564;53.346;-6.554;2023-03-19T00:21:43;100729.19;;;6.88;48.55
40372;BME280;28564;53.346;-6.554;2023-03-19T00:24:11;100727.23;;;6.82;48.49
40372;BME280;28564;53.346;-6.554;2023-03-19T00:26:38;100726.92;;;6.54;48.47
40372;BME280;28564;53.346;-6.554;2023-03-19T00:29:05;100729.66;;;6.73;48.40
40372;BME280;28564;53.346;-6.554;2023-03-19T00:31:33;100728.34;;;6.68;48.41
40372;BME280;28564;53.346;-6.554;2023-03-19T00:34:00;100730.90;;;6.66;48.38
40372;BME280;28564;53.346;-6.554;2023-03-19T00:36:28;100729.60;;;6.64;48.35
40372;BME280;28564;53.346;-6.554;2023-03-19T00:38:55;100729.29;;;6.61;48.30
40372;BME280;28564;53.346;-6.554;2023-03-19T00:41:23;100731.22;;;6.59;48.27
40372;BME280;28564;53.346;-6.554;2023-03-19T00:43:52;100738.89;;;6.56;48.23
40372;BME280;28564;53.346;-6.554;2023-03-19T00:46:21;100736.24;;;6.55;48.18
40372;BME280;28564;53.346;-6.554;2023-03-19T00:48:48;100737.03;;;6.49;48.20
40372;BME280;28564;53.346;-6.554;2023-03-19T00:51:15;100737.81;;;6.46;48.23
40372;BME280;28564;53.346;-6.554;2023-03-19T00:53:43;100738.36;;;6.62;48.36
40372;BME280;28564;53.346;-6.554;2023-03-19T00:56:12;100738.00;;;6.61;48.24
40372;BME280;28564;53.346;-6.554;2023-03-19T00:58:40;100735.93;;;6.60;48.14
40372;BME280;28564;53.346;-6.554;2023-03-19T01:01:07;100740.01;;;6.56;48.05
40372;BME280;28564;53.346;-6.554;2023-03-19T01:03:35;100738.58;;;6.30;48.07
40372;BME280;28564;53.346;-6.554;2023-03-19T01:06:03;100735.00;;;6.49;48.01
40372;BME280;28564;53.346;-6.554;2023-03-19T01:08:31;100732.72;;;6.22;48.04
40372;BME280;28564;53.346;-6.554;2023-03-19T01:11:04;100738.50;;;6.18;48.06
40372;BME280;28564;53.346;-6.554;2023-03-19T01:13:32;100742.08;;;6.38;47.99
40372;BME280;28564;53.346;-6.554;2023-03-19T01:15:59;100754.64;;;6.35;47.97
40372;BME280;28564;53.346;-6.554;2023-03-19T01:18:26;100760.57;;;6.34;47.87
40372;BME280;28564;53.346;-6.554;2023-03-19T01:20:54;100762.77;;;6.29;47.86
40372;BME280;28564;53.346;-6.554;2023-03-19T01:23:21;100764.27;;;6.04;47.80
40372;BME280;28564;53.346;-6.554;2023-03-19T01:25:49;100764.32;;;6.21;47.77
40372;BME280;28564;53.346;-6.554;2023-03-19T01:28:16;100765.50;;;6.18;47.80
40372;BME280;28564;53.346;-6.554;2023-03-19T01:30:44;100766.98;;;5.91;47.86
40372;BME280;28564;53.346;-6.554;2023-03-19T01:33:12;100767.85;;;5.89;47.86
40372;BME280;28564;53.346;-6.554;2023-03-19T01:35:40;100768.33;;;6.09;47.83
40372;BME280;28564;53.346;-6.554;2023-03-19T01:38:07;100771.53;;;6.34;47.80
40372;BME280;28564;53.346;-6.554;2023-03-19T01:40:35;100773.65;;;6.05;47.75
40372;BME280;28564;53.346;-6.554;2023-03-19T01:43:21;100778.89;;;6.05;47.70
40372;BME280;28564;53.346;-6.554;2023-03-19T01:45:50;100774.42;;;5.83;47.55
40372;BME280;28564;53.346;-6.554;2023-03-19T01:48:28;100777.87;;;6.05;47.43
40372;BME280;28564;53.346;-6.554;2023-03-19T01:50:58;100770.99;;;6.06;47.32
40372;BME280;28564;53.346;-6.554;2023-03-19T01:53:28;100770.18;;;5.84;47.26
40372;BME280;28564;53.346;-6.554;2023-03-19T01:56:01;100773.23;;;6.06;47.17
40372;BME280;28564;53.346;-6.554;2023-03-19T01:58:30;100777.31;;;6.32;47.14
40372;BME280;28564;53.346;-6.554;2023-03-19T02:00:57;100779.82;;;6.00;47.23
40372;BME280;28564;53.346;-6.554;2023-03-19T02:03:25;100780.77;;;6.28;47.17
40372;BME280;28564;53.346;-6.554;2023-03-19T02:05:53;100778.74;;;6.29;47.08
40372;BME280;28564;53.346;-6.554;2023-03-19T02:08:23;100776.00;;;6.01;47.04
40372;BME280;28564;53.346;-6.554;2023-03-19T02:10:53;100775.75;;;6.26;47.02
40372;BME280;28564;53.346;-6.554;2023-03-19T02:13:21;100778.79;;;5.98;46.99
40372;BME280;28564;53.346;-6.554;2023-03-19T02:15:49;100784.43;;;5.92;47.09
40372;BME280;28564;53.346;-6.554;2023-03-19T02:18:17;100784.07;;;6.21;47.05
40372;BME280;28564;53.346;-6.554;2023-03-19T02:20:49;100783.25;;;6.01;46.94
40372;BME280;28564;53.346;-6.554;2023-03-19T02:23:25;100786.57;;;6.01;46.80
40372;BME280;28564;53.346;-6.554;2023-03-19T02:26:02;100781.87;;;6.17;46.97
40372;BME280;28564;53.346;-6.554;2023-03-19T02:28:31;100785.84;;;5.88;47.06
40372;BME280;28564;53.346;-6.554;2023-03-19T02:31:00;100789.19;;;5.92;46.94
40372;BME280;28564;53.346;-6.554;2023-03-19T02:33:27;100791.88;;;6.13;46.99
40372;BME280;28564;53.346;-6.554;2023-03-19T02:35:55;100788.52;;;5.82;47.06
40372;BME280;28564;53.346;-6.554;2023-03-19T02:38:24;100789.93;;;5.78;47.10
40372;BME280;28564;53.346;-6.554;2023-03-19T02:40:58;100791.28;;;5.76;47.16
40372;BME280;28564;53.346;-6.554;2023-03-19T02:43:26;100789.18;;;6.01;47.12
40372;BME280;28564;53.346;-6.554;2023-03-19T02:45:54;100793.48;;;5.48;47.14
40372;BME280;28564;53.346;-6.554;2023-03-19T02:48:21;100786.75;;;5.65;47.18
40372;BME280;28564;53.346;-6.554;2023-03-19T02:50:48;100785.98;;;5.90;47.14
40372;BME280;28564;53.346;-6.554;2023-03-19T02:53:16;100783.67;;;5.61;47.14
40372;BME280;28564;53.346;-6.554;2023-03-19T02:55:44;100786.66;;;5.59;47.13
40372;BME280;28564;53.346;-6.554;2023-03-19T02:58:11;100789.95;;;5.54;47.15
40372;BME280;28564;53.346;-6.554;2023-03-19T03:00:39;100792.93;;;5.49;47.21
40372;BME280;28564;53.346;-6.554;2023-03-19T03:03:07;100791.53;;;5.44;47.21
40372;BME280;28564;53.346;-6.554;2023-03-19T03:05:34;100793.98;;;5.66;47.31
40372;BME280;28564;53.346;-6.554;2023-03-19T03:08:02;100794.78;;;5.63;47.34
40372;BME280;28564;53.346;-6.554;2023-03-19T03:10:30;100793.44;;;5.33;47.33
40372;BME280;28564;53.346;-6.554;2023-03-19T03:12:57;100791.24;;;5.31;47.28
40372;BME280;28564;53.346;-6.554;2023-03-19T03:15:25;100789.76;;;5.29;47.39
40372;BME280;28564;53.346;-6.554;2023-03-19T03:17:52;100790.73;;;5.53;47.41
40372;BME280;28564;53.346;-6.554;2023-03-19T03:20:19;100791.53;;;5.24;47.49
40372;BME280;28564;53.346;-6.554;2023-03-19T03:22:47;100797.72;;;5.44;47.59
40372;BME280;28564;53.346;-6.554;2023-03-19T03:25:14;100795.46;;;5.40;47.69
40372;BME280;28564;53.346;-6.554;2023-03-19T03:27:41;100801.57;;;5.38;47.69
40372;BME280;28564;53.346;-6.554;2023-03-19T03:30:11;100802.47;;;5.11;47.62
40372;BME280;28564;53.346;-6.554;2023-03-19T03:32:38;100807.47;;;5.09;47.61
40372;BME280;28564;53.346;-6.554;2023-03-19T03:35:07;100799.72;;;5.32;47.69
40372;BME280;28564;53.346;-6.554;2023-03-19T03:37:34;100797.00;;;5.30;47.69
40372;BME280;28564;53.346;-6.554;2023-03-19T03:40:01;100791.31;;;5.20;47.77
40372;BME280;28564;53.346;-6.554;2023-03-19T03:42:29;100803.28;;;5.39;47.86
40372;BME280;28564;53.346;-6.554;2023-03-19T03:44:56;100800.04;;;5.12;47.92
40372;BME280;28564;53.346;-6.554;2023-03-19T03:47:23;100800.27;;;5.10;47.91
40372;BME280;28564;53.346;-6.554;2023-03-19T03:49:51;100792.81;;;5.30;47.99
40372;BME280;28564;53.346;-6.554;2023-03-19T03:52:18;100793.76;;;4.77;48.08
40372;BME280;28564;53.346;-6.554;2023-03-19T03:54:45;100804.06;;;5.23;48.17
40372;BME280;28564;53.346;-6.554;2023-03-19T03:57:13;100804.86;;;4.96;48.21
40372;BME280;28564;53.346;-6.554;2023-03-19T03:59:40;100809.88;;;4.96;48.24
40372;BME280;28564;53.346;-6.554;2023-03-19T04:02:08;100815.54;;;4.94;48.31
40372;BME280;28564;53.346;-6.554;2023-03-19T04:04:35;100811.44;;;4.92;48.33
40372;BME280;28564;53.346;-6.554;2023-03-19T04:07:03;100809.48;;;4.89;48.30
40372;BME280;28564;53.346;-6.554;2023-03-19T04:09:30;100807.75;;;4.85;48.33
40372;BME280;28564;53.346;-6.554;2023-03-19T04:11:58;100807.78;;;4.84;48.27
40372;BME280;28564;53.346;-6.554;2023-03-19T04:14:25;100807.92;;;4.85;48.27
40372;BME280;28564;53.346;-6.554;2023-03-19T04:16:52;100812.63;;;4.87;48.24
40372;BME280;28564;53.346;-6.554;2023-03-19T04:19:20;100812.16;;;4.83;48.25
40372;BME280;28564;53.346;-6.554;2023-03-19T04:21:47;100808.54;;;5.02;48.24
40372;BME280;28564;53.346;-6.554;2023-03-19T04:24:14;100804.34;;;4.75;48.26
40372;BME280;28564;53.346;-6.554;2023-03-19T04:26:42;100807.04;;;4.96;48.28
40372;BME280;28564;53.346;-6.554;2023-03-19T04:29:09;100812.59;;;4.81;48.15
40372;BME280;28564;53.346;-6.554;2023-03-19T04:31:37;100811.84;;;4.80;48.14
40372;BME280;28564;53.346;-6.554;2023-03-19T04:34:04;100814.09;;;4.76;48.15
40372;BME280;28564;53.346;-6.554;2023-03-19T04:36:32;100812.95;;;4.93;48.24
40372;BME280;28564;53.346;-6.554;2023-03-19T04:39:00;100815.15;;;4.70;48.26
40372;BME280;28564;53.346;-6.554;2023-03-19T04:41:27;100817.78;;;4.91;48.23
40372;BME280;28564;53.346;-6.554;2023-03-19T04:43:54;100816.52;;;4.87;48.28
40372;BME280;28564;53.346;-6.554;2023-03-19T04:46:22;100820.80;;;4.59;48.41
40372;BME280;28564;53.346;-6.554;2023-03-19T04:48:49;100828.57;;;4.57;48.47
40372;BME280;28564;53.346;-6.554;2023-03-19T04:51:17;100831.25;;;5.05;48.43
40372;BME280;28564;53.346;-6.554;2023-03-19T04:53:44;100825.16;;;4.56;48.32
40372;BME280;28564;53.346;-6.554;2023-03-19T04:56:12;100829.24;;;4.77;48.37
40372;BME280;28564;53.346;-6.554;2023-03-19T04:58:39;100839.68;;;4.77;48.38
40372;BME280;28564;53.346;-6.554;2023-03-19T05:01:06;100841.40;;;4.77;48.32
40372;BME280;28564;53.346;-6.554;2023-03-19T05:03:34;100830.56;;;5.02;48.25
40372;BME280;28564;53.346;-6.554;2023-03-19T05:06:01;100823.94;;;4.48;48.40
40372;BME280;28564;53.346;-6.554;2023-03-19T05:08:28;100832.48;;;4.69;48.40
40372;BME280;28564;53.346;-6.554;2023-03-19T05:10:56;100839.96;;;4.45;48.44
40372;BME280;28564;53.346;-6.554;2023-03-19T05:13:23;100844.12;;;4.45;48.38
40372;BME280;28564;53.346;-6.554;2023-03-19T05:15:52;100846.39;;;4.69;48.39
40372;BME280;28564;53.346;-6.554;2023-03-19T05:18:21;100842.99;;;4.70;48.29
40372;BME280;28564;53.346;-6.554;2023-03-19T05:20:48;100840.35;;;4.67;48.34
40372;BME280;28564;53.346;-6.554;2023-03-19T05:23:15;100837.86;;;4.92;48.23
40372;BME280;28564;53.346;-6.554;2023-03-19T05:25:43;100838.40;;;4.62;48.27
40372;BME280;28564;53.346;-6.554;2023-03-19T05:28:10;100844.71;;;4.34;48.27
40372;BME280;28564;53.346;-6.554;2023-03-19T05:30:38;100848.09;;;4.52;48.30
40372;BME280;28564;53.346;-6.554;2023-03-19T05:33:05;100843.95;;;4.30;48.33
40372;BME280;28564;53.346;-6.554;2023-03-19T05:35:33;100846.32;;;4.77;48.30
40372;BME280;28564;53.346;-6.554;2023-03-19T05:38:00;100844.51;;;4.50;48.29
40372;BME280;28564;53.346;-6.554;2023-03-19T05:40:27;100844.20;;;4.27;48.21
40372;BME280;28564;53.346;-6.554;2023-03-19T05:42:55;100842.41;;;4.23;48.24
40372;BME280;28564;53.346;-6.554;2023-03-19T05:45:22;100847.88;;;4.65;48.33
40372;BME280;28564;53.346;-6.554;2023-03-19T05:47:50;100861.20;;;4.59;48.45
40372;BME280;28564;53.346;-6.554;2023-03-19T05:50:18;100862.42;;;4.57;48.48
40372;BME280;28564;53.346;-6.554;2023-03-19T05:52:45;100861.58;;;4.55;48.49
40372;BME280;28564;53.346;-6.554;2023-03-19T05:55:13;100864.55;;;4.56;48.45
40372;BME280;28564;53.346;-6.554;2023-03-19T05:57:40;100858.38;;;4.57;48.36
40372;BME280;28564;53.346;-6.554;2023-03-19T06:00:09;100857.81;;;4.53;48.46
40372;BME280;28564;53.346;-6.554;2023-03-19T06:02:37;100863.08;;;4.53;48.46
40372;BME280;28564;53.346;-6.554;2023-03-19T06:05:06;100868.72;;;4.01;48.57
40372;BME280;28564;53.346;-6.554;2023-03-19T06:07:33;100879.78;;;4.44;48.62
40372;BME280;28564;53.346;-6.554;2023-03-19T06:10:01;100884.46;;;3.97;48.54
40372;BME280;28564;53.346;-6.554;2023-03-19T06:12:29;100884.37;;;4.45;48.56
40372;BME280;28564;53.346;-6.554;2023-03-19T06:14:56;100888.82;;;4.14;48.66
40372;BME280;28564;53.346;-6.554;2023-03-19T06:17:24;100893.18;;;4.37;48.69
40372;BME280;28564;53.346;-6.554;2023-03-19T06:19:51;100884.72;;;4.34;48.81
40372;BME280;28564;53.346;-6.554;2023-03-19T06:22:19;100885.93;;;4.32;48.92
40372;BME280;28564;53.346;-6.554;2023-03-19T06:24:46;100890.44;;;4.30;48.95
40372;BME280;28564;53.346;-6.554;2023-03-19T06:27:14;100894.03;;;4.32;48.92
40372;BME280;28564;53.346;-6.554;2023-03-19T06:29:41;100898.58;;;4.32;48.92
40372;BME280;28564;53.346;-6.554;2023-03-19T06:32:09;100893.43;;;4.08;48.84
40372;BME280;28564;53.346;-6.554;2023-03-19T06:34:37;100886.24;;;4.33;48.79
40372;BME280;28564;53.346;-6.554;2023-03-19T06:37:04;100893.28;;;4.37;48.69
40372;BME280;28564;53.346;-6.554;2023-03-19T06:39:31;100891.89;;;4.36;48.68
40372;BME280;28564;53.346;-6.554;2023-03-19T06:41:59;100897.15;;;4.34;48.78
40372;BME280;28564;53.346;-6.554;2023-03-19T06:44:27;100907.74;;;4.36;48.77
40372;BME280;28564;53.346;-6.554;2023-03-19T06:46:54;100908.17;;;4.16;48.69
40372;BME280;28564;53.346;-6.554;2023-03-19T06:49:21;100904.07;;;4.44;48.78
40372;BME280;28564;53.346;-6.554;2023-03-19T06:51:49;100892.52;;;4.47;48.82
40372;BME280;28564;53.346;-6.554;2023-03-19T06:54:16;100890.77;;;4.52;48.81
40372;BME280;28564;53.346;-6.554;2023-03-19T06:56:44;100891.69;;;4.57;48.79
40372;BME280;28564;53.346;-6.554;2023-03-19T06:59:11;100902.43;;;4.65;48.74
40372;BME280;28564;53.346;-6.554;2023-03-19T07:01:39;100904.52;;;4.68;48.82
40372;BME280;28564;53.346;-6.554;2023-03-19T07:04:07;100907.49;;;4.77;48.72
40372;BME280;28564;53.346;-6.554;2023-03-19T07:06:34;100911.75;;;4.32;48.72
40372;BME280;28564;53.346;-6.554;2023-03-19T07:09:02;100911.33;;;4.58;48.82
40372;BME280;28564;53.346;-6.554;2023-03-19T07:11:30;100924.87;;;4.96;48.57
40372;BME280;28564;53.346;-6.554;2023-03-19T07:13:57;100922.78;;;4.47;48.68
40372;BME280;28564;53.346;-6.554;2023-03-19T07:16:25;100926.04;;;4.53;48.67
40372;BME280;28564;53.346;-6.554;2023-03-19T07:18:52;100937.20;;;4.81;48.62
40372;BME280;28564;53.346;-6.554;2023-03-19T07:21:19;100932.57;;;4.63;48.66
40372;BME280;28564;53.346;-6.554;2023-03-19T07:23:47;100928.91;;;5.20;48.63
40372;BME280;28564;53.346;-6.554;2023-03-19T07:26:14;100930.66;;;4.80;48.58
40372;BME280;28564;53.346;-6.554;2023-03-19T07:28:42;100934.57;;;4.88;48.53
40372;BME280;28564;53.346;-6.554;2023-03-19T07:31:09;100938.03;;;4.95;48.43
40372;BME280;28564;53.346;-6.554;2023-03-19T07:33:37;100936.10;;;5.03;48.31
40372;BME280;28564;53.346;-6.554;2023-03-19T07:36:05;100937.72;;;5.08;48.33
40372;BME280;28564;53.346;-6.554;2023-03-19T07:38:33;100933.61;;;5.38;48.21
40372;BME280;28564;53.346;-6.554;2023-03-19T07:41:00;100936.20;;;5.22;48.08
40372;BME280;28564;53.346;-6.554;2023-03-19T07:43:28;100935.33;;;5.23;48.12
40372;BME280;28564;53.346;-6.554;2023-03-19T07:45:55;100931.61;;;5.02;48.05
40372;BME280;28564;53.346;-6.554;2023-03-19T07:48:22;100940.55;;;5.33;48.24
40372;BME280;28564;53.346;-6.554;2023-03-19T07:50:50;100939.15;;;5.39;48.18
40372;BME280;28564;53.346;-6.554;2023-03-19T07:53:17;100942.14;;;5.44;48.25
40372;BME280;28564;53.346;-6.554;2023-03-19T07:55:45;100939.24;;;5.28;48.21
40372;BME280;28564;53.346;-6.554;2023-03-19T07:58:13;100934.30;;;5.63;48.15
40372;BME280;28564;53.346;-6.554;2023-03-19T08:00:40;100934.80;;;5.74;48.06
40372;BME280;28564;53.346;-6.554;2023-03-19T08:03:08;100940.70;;;5.58;47.85
40372;BME280;28564;53.346;-6.554;2023-03-19T08:05:35;100947.31;;;5.43;47.86
40372;BME280;28564;53.346;-6.554;2023-03-19T08:08:02;100943.18;;;6.00;48.04
40372;BME280;28564;53.346;-6.554;2023-03-19T08:10:29;100942.67;;;5.65;47.93
40372;BME280;28564;53.346;-6.554;2023-03-19T08:12:57;100946.78;;;6.02;47.91
40372;BME280;28564;53.346;-6.554;2023-03-19T08:15:24;100944.79;;;5.90;47.91
40372;BME280;28564;53.346;-6.554;2023-03-19T08:17:57;100948.06;;;6.06;47.71
40372;BME280;28564;53.346;-6.554;2023-03-19T08:20:24;100946.69;;;6.21;47.56
40372;BME280;28564;53.346;-6.554;2023-03-19T08:22:51;100947.10;;;6.27;47.43
40372;BME280;28564;53.346;-6.554;2023-03-19T08:25:19;100950.02;;;6.35;47.48
40372;BME280;28564;53.346;-6.554;2023-03-19T08:27:46;100949.09;;;6.44;47.56
40372;BME280;28564;53.346;-6.554;2023-03-19T08:30:13;100947.04;;;6.53;47.63
40372;BME280;28564;53.346;-6.554;2023-03-19T08:32:41;100948.90;;;6.45;47.63
40372;BME280;28564;53.346;-6.554;2023-03-19T08:35:09;100953.53;;;6.75;47.51
40372;BME280;28564;53.346;-6.554;2023-03-19T08:37:37;100953.26;;;6.63;47.59
40372;BME280;28564;53.346;-6.554;2023-03-19T08:40:05;100962.98;;;6.75;47.53
40372;BME280;28564;53.346;-6.554;2023-03-19T08:42:32;100961.90;;;6.59;47.38
40372;BME280;28564;53.346;-6.554;2023-03-19T08:45:06;100956.13;;;6.69;47.39
40372;BME280;28564;53.346;-6.554;2023-03-19T08:47:33;100954.06;;;7.08;47.30
40372;BME280;28564;53.346;-6.554;2023-03-19T08:50:00;100962.25;;;6.91;47.15
40372;BME280;28564;53.346;-6.554;2023-03-19T08:52:28;100961.85;;;7.02;47.05
40372;BME280;28564;53.346;-6.554;2023-03-19T08:54:55;100955.23;;;7.18;46.98
40372;BME280;28564;53.346;-6.554;2023-03-19T08:57:22;100949.54;;;7.29;46.82
40372;BME280;28564;53.346;-6.554;2023-03-19T08:59:51;100955.14;;;7.44;46.69
40372;BME280;28564;53.346;-6.554;2023-03-19T09:02:18;100954.43;;;7.60;46.54
40372;BME280;28564;53.346;-6.554;2023-03-19T09:04:46;100950.05;;;7.82;46.02
40372;BME280;28564;53.346;-6.554;2023-03-19T09:07:13;100951.79;;;7.77;45.76
40372;BME280;28564;53.346;-6.554;2023-03-19T09:09:41;100953.74;;;7.96;45.79
40372;BME280;28564;53.346;-6.554;2023-03-19T09:12:10;100958.82;;;8.15;45.57
40372;BME280;28564;53.346;-6.554;2023-03-19T09:14:38;100957.51;;;8.60;45.58
40372;BME280;28564;53.346;-6.554;2023-03-19T09:17:06;100955.90;;;8.40;45.29
40372;BME280;28564;53.346;-6.554;2023-03-19T09:19:34;100963.49;;;8.66;44.74
40372;BME280;28564;53.346;-6.554;2023-03-19T09:22:02;100961.28;;;8.59;44.81
40372;BME280;28564;53.346;-6.554;2023-03-19T09:24:30;100963.13;;;9.07;43.80
40372;BME280;28564;53.346;-6.554;2023-03-19T09:26:57;100967.16;;;8.95;43.67
40372;BME280;28564;53.346;-6.554;2023-03-19T09:29:24;100968.25;;;9.12;43.73
40372;BME280;28564;53.346;-6.554;2023-03-19T09:31:51;100965.50;;;9.10;43.21
40372;BME280;28564;53.346;-6.554;2023-03-19T09:34:24;100970.51;;;9.31;43.38
40372;BME280;28564;53.346;-6.554;2023-03-19T09:36:51;100963.53;;;9.76;42.74
40372;BME280;28564;53.346;-6.554;2023-03-19T09:39:19;100958.30;;;9.68;42.39
40372;BME280;28564;53.346;-6.554;2023-03-19T09:42:02;100958.63;;;9.85;42.42
40372;BME280;28564;53.346;-6.554;2023-03-19T09:44:34;100956.25;;;9.74;42.08
40372;BME280;28564;53.346;-6.554;2023-03-19T09:47:11;100948.08;;;9.86;41.77
40372;BME280;28564;53.346;-6.554;2023-03-19T09:49:46;100949.90;;;10.25;41.77
40372;BME280;28564;53.346;-6.554;2023-03-19T09:52:19;100952.42;;;10.35;41.70
40372;BME280;28564;53.346;-6.554;2023-03-19T09:54:59;100948.23;;;10.17;41.34
40372;BME280;28564;53.346;-6.554;2023-03-19T09:57:29;100953.70;;;10.31;41.05
40372;BME280;28564;53.346;-6.554;2023-03-19T10:00:04;100959.84;;;10.41;40.85
40372;BME280;28564;53.346;-6.554;2023-03-19T10:04:02;100947.46;;;10.67;40.35
40372;BME280;28564;53.346;-6.554;2023-03-19T10:06:33;100952.67;;;10.74;40.30
40372;BME280;28564;53.346;-6.554;2023-03-19T10:09:41;100952.34;;;10.79;40.42
40372;BME280;28564;53.346;-6.554;2023-03-19T10:12:19;100950.66;;;10.64;40.25
40372;BME280;28564;53.346;-6.554;2023-03-19T10:15:27;100953.38;;;10.95;40.33
40372;BME280;28564;53.346;-6.554;2023-03-19T10:17:59;100950.82;;;11.05;40.01
40372;BME280;28564;53.346;-6.554;2023-03-19T10:20:37;100950.34;;;10.91;40.03
40372;BME280;28564;53.346;-6.554;2023-03-19T10:23:29;100947.44;;;11.27;39.61
40372;BME280;28564;53.346;-6.554;2023-03-19T10:25:59;100947.29;;;11.12;39.60
40372;BME280;28564;53.346;-6.554;2023-03-19T10:28:28;100943.57;;;11.49;39.79
40372;BME280;28564;53.346;-6.554;2023-03-19T10:31:12;100934.65;;;11.10;39.77
40372;BME280;28564;53.346;-6.554;2023-03-19T10:33:48;100931.35;;;11.43;39.12
40372;BME280;28564;53.346;-6.554;2023-03-19T10:36:19;100932.83;;;11.23;39.29
40372;BME280;28564;53.346;-6.554;2023-03-19T10:38:48;100931.20;;;11.36;39.51
40372;BME280;28564;53.346;-6.554;2023-03-19T10:41:33;100932.19;;;12.00;38.86
40372;BME280;28564;53.346;-6.554;2023-03-19T10:44:33;100941.60;;;12.16;39.03
40372;BME280;28564;53.346;-6.554;2023-03-19T10:47:09;100946.74;;;11.84;37.95
40372;BME280;28564;53.346;-6.554;2023-03-19T10:49:38;100952.02;;;11.83;38.42
40372;BME280;28564;53.346;-6.554;2023-03-19T10:52:17;100946.39;;;11.81;38.61
40372;BME280;28564;53.346;-6.554;2023-03-19T10:54:46;100949.55;;;12.17;37.37
40372;BME280;28564;53.346;-6.554;2023-03-19T10:57:22;100946.45;;;11.79;37.40
40372;BME280;28564;53.346;-6.554;2023-03-19T10:59:51;100948.77;;;11.86;37.16
40372;BME280;28564;53.346;-6.554;2023-03-19T11:02:20;100942.57;;;11.83;36.84
40372;BME280;28564;53.346;-6.554;2023-03-19T11:04:48;100944.25;;;11.79;36.70
40372;BME280;28564;53.346;-6.554;2023-03-19T11:07:19;100943.34;;;11.83;37.12
40372;BME280;28564;53.346;-6.554;2023-03-19T11:09:48;100951.01;;;11.98;37.63
40372;BME280;28564;53.346;-6.554;2023-03-19T11:12:18;100949.98;;;12.28;37.69
40372;BME280;28564;53.346;-6.554;2023-03-19T11:14:47;100946.08;;;12.50;36.96
40372;BME280;28564;53.346;-6.554;2023-03-19T11:17:21;100936.78;;;12.24;36.51
40372;BME280;28564;53.346;-6.554;2023-03-19T11:19:52;100936.61;;;12.40;36.91
40372;BME280;28564;53.346;-6.554;2023-03-19T11:22:23;100934.83;;;12.60;36.65
40372;BME280;28564;53.346;-6.554;2023-03-19T11:24:53;100918.75;;;12.65;35.75
40372;BME280;28564;53.346;-6.554;2023-03-19T11:27:30;100915.79;;;12.93;35.94
40372;BME280;28564;53.346;-6.554;2023-03-19T11:29:58;100913.66;;;12.79;35.14
40372;BME280;28564;53.346;-6.554;2023-03-19T11:32:38;100911.95;;;12.95;35.87
40372;BME280;28564;53.346;-6.554;2023-03-19T11:35:16;100910.32;;;12.83;35.19
40372;BME280;28564;53.346;-6.554;2023-03-19T11:37:53;100915.03;;;12.81;34.79
40372;BME280;28564;53.346;-6.554;2023-03-19T11:40:30;100924.11;;;12.87;35.20
40372;BME280;28564;53.346;-6.554;2023-03-19T11:43:13;100919.06;;;13.34;34.93
40372;BME280;28564;53.346;-6.554;2023-03-19T11:45:56;100916.54;;;13.17;34.95
40372;BME280;28564;53.346;-6.554;2023-03-19T11:48:38;100917.78;;;13.81;34.64
40372;BME280;28564;53.346;-6.554;2023-03-19T11:51:14;100914.69;;;13.78;33.63
40372;BME280;28564;53.346;-6.554;2023-03-19T11:53:56;100908.19;;;13.54;33.67
40372;BME280;28564;53.346;-6.554;2023-03-19T11:56:31;100905.66;;;13.98;33.54
40372;BME280;28564;53.346;-6.554;2023-03-19T11:59:17;100898.13;;;13.53;33.59
40372;BME280;28564;53.346;-6.554;2023-03-19T12:02:03;100896.28;;;13.58;32.73
40372;BME280;28564;53.346;-6.554;2023-03-19T12:04:44;100896.52;;;13.58;33.10
40372;BME280;28564;53.346;-6.554;2023-03-19T12:07:25;100891.09;;;13.73;33.57
40372;BME280;28564;53.346;-6.554;2023-03-19T12:10:05;100887.43;;;13.95;33.29
40372;BME280;28564;53.346;-6.554;2023-03-19T12:12:47;100881.01;;;13.80;33.08
40372;BME280;28564;53.346;-6.554;2023-03-19T12:15:24;100881.29;;;14.13;33.28
40372;BME280;28564;53.346;-6.554;2023-03-19T12:18:04;100876.87;;;14.14;33.10
40372;BME280;28564;53.346;-6.554;2023-03-19T12:20:45;100881.65;;;14.03;32.81
40372;BME280;28564;53.346;-6.554;2023-03-19T12:23:30;100877.14;;;13.80;33.29
40372;BME280;28564;53.346;-6.554;2023-03-19T12:26:03;100878.80;;;13.80;33.18
40372;BME280;28564;53.346;-6.554;2023-03-19T12:28:33;100879.61;;;13.66;33.73
40372;BME280;28564;53.346;-6.554;2023-03-19T12:31:17;100884.46;;;13.26;34.10
40372;BME280;28564;53.346;-6.554;2023-03-19T12:34:01;100883.94;;;13.28;33.54
40372;BME280;28564;53.346;-6.554;2023-03-19T12:36:40;100884.91;;;13.18;33.63
40372;BME280;28564;53.346;-6.554;2023-03-19T12:39:16;100878.06;;;12.99;33.72
40372;BME280;28564;53.346;-6.554;2023-03-19T12:41:51;100880.74;;;13.07;34.14
40372;BME280;28564;53.346;-6.554;2023-03-19T12:44:26;100878.56;;;12.96;34.53
40372;BME280;28564;53.346;-6.554;2023-03-19T12:46:58;100880.09;;;13.29;34.32
40372;BME280;28564;53.346;-6.554;2023-03-19T12:49:30;100874.02;;;13.11;34.36
40372;BME280;28564;53.346;-6.554;2023-03-19T12:52:02;100872.29;;;13.24;34.63
40372;BME280;28564;53.346;-6.554;2023-03-19T12:54:35;100867.37;;;13.46;34.55
40372;BME280;28564;53.346;-6.554;2023-03-19T12:57:09;100860.63;;;13.71;34.11
40372;BME280;28564;53.346;-6.554;2023-03-19T12:59:41;100862.57;;;13.66;34.04
40372;BME280;28564;53.346;-6.554;2023-03-19T13:02:19;100854.69;;;13.69;33.95
40372;BME280;28564;53.346;-6.554;2023-03-19T13:04:54;100854.67;;;13.60;34.03